Quinsam — VY6800 — position and weather

sailwx.info

Track history (hours):
 
Tides and Currents Weather Stations Pressure Air Temp Water Temp Dewpoint Dewpoint Depression Visibility Wind Speed Wind Dir Waves Ship Positions

Quinsam

Last reported at 2015-Mar-06 23:29 UTC. Time now 2015-Mar-07 00:16 UTC.
Position N 49°10' W 123°56'.

Length 88 m; draft 1.5 m.

Type: Ship. MMSI: 316001266.

Date/timePositionNaut miles runAvg speedWind from/ knotsBaromVisibWave heightAir tempDewpointWater temp
2015-Mar-06 23:29N 49°10' W 123°56'3 3.1
2015-Mar-06 22:33N 49°11' W 123°52'3 2.8
2015-Mar-06 21:34N 49°10' W 123°56'0 0.1
2015-Mar-06 20:34N 49°10' W 123°56'2 1.5
2015-Mar-06 19:33N 49°10' W 123°54'2 1.5
2015-Mar-06 18:33N 49°10' W 123°56'0 0.3
2015-Mar-06 17:34N 49°10' W 123°55'2 2.3
2015-Mar-06 16:33N 49°11' W 123°52'0 0.3
2015-Mar-06 15:22N 49°11' W 123°52'0 0.6
2015-Mar-06 14:33N 49°11' W 123°52'0 0.1
2015-Mar-06 13:33N 49°11' W 123°52'0 0.2
2015-Mar-06 11:09N 49°11' W 123°52'0 0.0
2015-Mar-06 10:21N 49°11' W 123°52'0 0.0
2015-Mar-06 09:30N 49°11' W 123°52'0 0.0
2015-Mar-06 08:33N 49°11' W 123°52'0 0.0
2015-Mar-06 07:29N 49°11' W 123°52'0 0.0
2015-Mar-06 06:28N 49°11' W 123°52'0 0.0
2015-Mar-06 05:31N 49°11' W 123°52'2 1.6
2015-Mar-06 04:34N 49°10' W 123°54'1 0.6
2015-Mar-06 03:33N 49°11' W 123°53'1 0.6
2015-Mar-06 02:33N 49°11' W 123°52'0 0.3
2015-Mar-06 01:29N 49°11' W 123°52'1 1.0
2015-Mar-06 00:33N 49°10' W 123°53'2 1.7
2015-Mar-05 23:28N 49°10' W 123°56'3 2.0
2015-Mar-05 22:07N 49°11' W 123°52'3 4.9
2015-Mar-05 21:33N 49°10' W 123°56'0 0.0
2015-Mar-05 20:32N 49°10' W 123°56'1 1.0
2015-Mar-05 19:33N 49°10' W 123°54'1 0.9
2015-Mar-05 18:32N 49°10' W 123°56'0 0.2
2015-Mar-05 17:32N 49°10' W 123°56'3 2.5
2015-Mar-05 16:32N 49°11' W 123°52'0 0.2
2015-Mar-05 15:33N 49°11' W 123°52'0 0.0
2015-Mar-05 14:33N 49°11' W 123°52'0 0.2
2015-Mar-05 13:31N 49°11' W 123°52'0 0.1
2015-Mar-05 11:25N 49°11' W 123°52'0 0.0
2015-Mar-05 10:25N 49°11' W 123°52'0 0.0
2015-Mar-05 09:25N 49°11' W 123°52'0 0.0
2015-Mar-05 08:25N 49°11' W 123°52'0 0.0
2015-Mar-05 07:32N 49°11' W 123°52'3 2.9
2015-Mar-05 06:33N 49°10' W 123°56'3 2.7
2015-Mar-05 05:30N 49°11' W 123°52'2 2.2
2015-Mar-05 04:33N 49°10' W 123°55'1 0.8
2015-Mar-05 03:33N 49°10' W 123°54'1 1.3
2015-Mar-05 02:33N 49°11' W 123°52'0 0.0
2015-Mar-05 01:31N 49°11' W 123°52'1 0.8
2015-Mar-05 00:32N 49°11' W 123°53'2 2.2
2015-Mar-04 23:33N 49°10' W 123°56'3 2.2
2015-Mar-04 22:14N 49°11' W 123°52'3 4.0
2015-Mar-04 21:33N 49°10' W 123°56'0 0.2
2015-Mar-04 20:33N 49°10' W 123°56'2 1.8
2015-Mar-04 19:33N 49°10' W 123°53'2 1.6
2015-Mar-04 18:29N 49°10' W 123°56'0 0.3
2015-Mar-04 17:33N 49°10' W 123°55'2 2.1
2015-Mar-04 16:30N 49°11' W 123°52'0 0.5
2015-Mar-04 15:33N 49°11' W 123°52'0 0.0
2015-Mar-04 14:33N 49°11' W 123°52'1 0.5
2015-Mar-04 13:33N 49°11' W 123°52'1 0.5
2015-Mar-04 12:31N 49°11' W 123°52'0 0.0
2015-Mar-04 11:13N 49°11' W 123°52'0 0.0
2015-Mar-04 10:31N 49°11' W 123°52'0 0.0
2015-Mar-04 09:31N 49°11' W 123°52'0 0.0
2015-Mar-04 08:25N 49°11' W 123°52'0 0.0
2015-Mar-04 07:29N 49°11' W 123°52'0 0.0
2015-Mar-04 06:33N 49°11' W 123°52'0 0.0
2015-Mar-04 05:31N 49°11' W 123°52'1 1.4
2015-Mar-04 04:33N 49°10' W 123°54'0 0.4
2015-Mar-04 03:33N 49°11' W 123°53'1 0.7
2015-Mar-04 02:32N 49°11' W 123°52'1 0.5
2015-Mar-04 01:20N 49°11' W 123°53'0 0.4
2015-Mar-04 00:33N 49°11' W 123°52'2 2.2
2015-Mar-03 23:29N 49°10' W 123°56'2 1.4
2015-Mar-03 22:03N 49°11' W 123°53'2 4.0
2015-Mar-03 21:32N 49°10' W 123°56'0 0.0
2015-Mar-03 20:33N 49°10' W 123°56'2 2.0
2015-Mar-03 19:33N 49°11' W 123°53'2 1.9
2015-Mar-03 18:33N 49°10' W 123°56'0 0.2
2015-Mar-03 17:33N 49°10' W 123°56'3 2.5
2015-Mar-03 16:33N 49°11' W 123°52'0 0.2
2015-Mar-03 15:33N 49°11' W 123°52'0 0.4
2015-Mar-03 14:33N 49°11' W 123°52'0 0.1
2015-Mar-03 13:33N 49°11' W 123°52'0 0.1
2015-Mar-03 09:22N 49°11' W 123°52'0 0.0
2015-Mar-03 08:04N 49°11' W 123°52'0 0.0
2015-Mar-03 07:29N 49°11' W 123°52'0 0.0
2015-Mar-03 06:28N 49°11' W 123°52'0 0.0
2015-Mar-03 05:33N 49°11' W 123°52'1 1.2
2015-Mar-03 04:33N 49°10' W 123°53'0 0.1
2015-Mar-03 03:33N 49°11' W 123°53'1 1.3
2015-Mar-03 02:33N 49°11' W 123°52'0 0.0
2015-Mar-03 01:32N 49°11' W 123°52'1 1.1
2015-Mar-03 00:33N 49°10' W 123°53'2 1.7
2015-Mar-02 23:29N 49°10' W 123°56'3 3.0
2015-Mar-02 22:32N 49°11' W 123°52'3 2.4
2015-Mar-02 21:31N 49°10' W 123°55'0 0.3
2015-Mar-02 20:23N 49°10' W 123°56'1 1.6
2015-Mar-02 19:32N 49°10' W 123°54'1 1.3
2015-Mar-02 18:30N 49°10' W 123°56'0 0.0
2015-Mar-02 17:33N 49°10' W 123°56'2 2.4
2015-Mar-02 16:33N 49°11' W 123°52'0 0.5
2015-Mar-02 15:32N 49°11' W 123°52'0 0.0
2015-Mar-02 14:32N 49°11' W 123°52'0 0.4
2015-Mar-02 13:33N 49°11' W 123°52'0 0.4
2015-Mar-02 12:28N 49°11' W 123°52'0 0.0
2015-Mar-02 11:22N 49°11' W 123°52'0 0.0
2015-Mar-02 10:10N 49°11' W 123°52'0 0.0
2015-Mar-02 09:10N 49°11' W 123°52'0 0.0
2015-Mar-02 08:22N 49°11' W 123°52'2 1.4
2015-Mar-02 06:34N 49°10' W 123°55'2 2.4
2015-Mar-02 05:33N 49°11' W 123°52'1 1.4
2015-Mar-02 04:33N 49°10' W 123°54'0 0.2
2015-Mar-02 03:33N 49°11' W 123°53'1 0.9
2015-Mar-02 02:33N 49°11' W 123°52'0 0.2
2015-Mar-02 01:21N 49°11' W 123°52'1 1.0
2015-Mar-02 00:33N 49°10' W 123°53'2 1.6
2015-Mar-01 23:31N 49°10' W 123°56'1 0.5
2015-Mar-01 21:33N 49°10' W 123°54'1 1.2
2015-Mar-01 20:32N 49°11' W 123°53'0 0.1
2015-Mar-01 19:21N 49°11' W 123°53'2 2.4
2015-Mar-01 18:26N 49°10' W 123°56'2 2.6
2015-Mar-01 17:33N 49°11' W 123°53'0 0.1
2015-Mar-01 16:22N 49°11' W 123°52'2 2.0
2015-Mar-01 15:11N 49°10' W 123°56'3 4.4
2015-Mar-01 14:31N 49°11' W 123°52'0 0.0
2015-Mar-01 08:23N 49°11' W 123°52'0 0.0
2015-Mar-01 07:27N 49°11' W 123°52'1 0.5
2015-Mar-01 06:22N 49°11' W 123°52'1 0.6
2015-Mar-01 05:31N 49°11' W 123°52'2 1.7
2015-Mar-01 04:32N 49°10' W 123°54'0 0.1
2015-Mar-01 03:32N 49°10' W 123°54'1 1.0
2015-Mar-01 02:30N 49°11' W 123°52'0 0.1
2015-Mar-01 01:18N 49°11' W 123°53'0 0.2
2015-Mar-01 00:32N 49°11' W 123°53'2 2.1
2015-Feb-28 23:32N 49°10' W 123°56'1 0.3
2015-Feb-28 21:33N 49°10' W 123°55'2 1.5
2015-Feb-28 20:33N 49°11' W 123°53'0 0.1
2015-Feb-28 19:21N 49°11' W 123°53'2 2.3
2015-Feb-28 18:22N 49°10' W 123°56'1 0.9
2015-Feb-28 17:33N 49°10' W 123°55'2 1.5
2015-Feb-28 16:24N 49°11' W 123°52'0 0.4
2015-Feb-28 15:26N 49°11' W 123°52'0 0.2
2015-Feb-28 14:32N 49°11' W 123°52'0 0.1
2015-Feb-28 13:12N 49°11' W 123°52'0 0.0
2015-Feb-28 08:12N 49°11' W 123°52'1 0.7
2015-Feb-28 07:23N 49°11' W 123°52'1 0.6
2015-Feb-28 06:28N 49°11' W 123°52'2 0.9
2015-Feb-28 04:33N 49°10' W 123°54'0 0.3
2015-Feb-28 03:33N 49°10' W 123°54'1 0.9
2015-Feb-28 02:28N 49°11' W 123°52'0 0.1
2015-Feb-28 01:22N 49°11' W 123°52'0 0.6
2015-Feb-28 00:33N 49°11' W 123°53'2 1.9
2015-Feb-27 23:27N 49°10' W 123°56'2 1.5
2015-Feb-27 22:05N 49°11' W 123°53'2 3.8
2015-Feb-27 21:32N 49°10' W 123°56'0 0.1
2015-Feb-27 20:33N 49°10' W 123°56'2 1.5
2015-Feb-27 19:31N 49°10' W 123°54'2 1.6
2015-Feb-27 18:33N 49°10' W 123°56'0 0.1
2015-Feb-27 17:33N 49°10' W 123°56'3 2.7
2015-Feb-27 16:32N 49°11' W 123°52'0 0.1
2015-Feb-27 15:26N 49°11' W 123°52'0 0.0
2015-Feb-27 14:32N 49°11' W 123°52'0 0.2
2015-Feb-27 13:33N 49°11' W 123°52'0 0.1
2015-Feb-27 11:31N 49°11' W 123°52'1 0.2
2015-Feb-27 07:21N 49°11' W 123°53'1 0.8
2015-Feb-27 06:31N 49°11' W 123°52'0 0.0
2015-Feb-27 05:17N 49°11' W 123°52'1 1.8
2015-Feb-27 04:33N 49°10' W 123°54'0 0.1
2015-Feb-27 03:33N 49°10' W 123°53'1 0.5
2015-Feb-27 02:26N 49°11' W 123°53'1 0.8
2015-Feb-27 01:29N 49°11' W 123°52'0 0.0
2015-Feb-27 00:13N 49°11' W 123°52'2 2.6
2015-Feb-26 23:24N 49°10' W 123°55'0 0.0
2015-Feb-26 21:32N 49°10' W 123°55'1 0.5
2015-Feb-26 20:26N 49°10' W 123°56'1 1.0
2015-Feb-26 19:33N 49°10' W 123°54'1 0.8
2015-Feb-26 18:33N 49°10' W 123°55'0 0.3
2015-Feb-26 17:26N 49°10' W 123°56'1 1.5
2015-Feb-26 16:34N 49°10' W 123°54'2 1.5
2015-Feb-26 15:30N 49°11' W 123°52'0 0.0
2015-Feb-26 14:27N 49°11' W 123°52'0 0.0
2015-Feb-26 13:30N 49°11' W 123°52'0 0.0
2015-Feb-26 07:28N 49°11' W 123°52'0 0.1
2015-Feb-26 05:31N 49°11' W 123°52'1 1.4
2015-Feb-26 04:33N 49°10' W 123°54'0 0.1
2015-Feb-26 03:32N 49°10' W 123°54'1 0.7
2015-Feb-26 02:29N 49°11' W 123°53'0 0.2
2015-Feb-26 01:20N 49°11' W 123°52'0 0.1
2015-Feb-26 00:30N 49°11' W 123°52'2 2.1
2015-Feb-25 23:27N 49°10' W 123°56'3 2.7
2015-Feb-25 22:25N 49°11' W 123°52'3 3.1
2015-Feb-25 21:32N 49°10' W 123°56'0 0.1
2015-Feb-25 20:22N 49°10' W 123°56'2 2.9
2015-Feb-25 19:33N 49°11' W 123°52'2 2.1
2015-Feb-25 18:26N 49°10' W 123°56'0 0.5
2015-Feb-25 17:33N 49°10' W 123°55'2 1.6
2015-Feb-25 16:31N 49°11' W 123°53'1 0.6
2015-Feb-25 15:25N 49°11' W 123°52'0 0.1
2015-Feb-25 14:32N 49°11' W 123°52'0 0.4
2015-Feb-25 13:33N 49°11' W 123°52'0 0.1
2015-Feb-25 07:33N 49°11' W 123°52'0 0.0
2015-Feb-25 06:30N 49°11' W 123°52'0 0.0
2015-Feb-25 05:26N 49°11' W 123°52'1 1.1
2015-Feb-25 04:33N 49°11' W 123°53'0 0.2
2015-Feb-25 03:32N 49°11' W 123°53'1 0.8
2015-Feb-25 02:33N 49°11' W 123°52'0 0.0
2015-Feb-25 01:33N 49°11' W 123°52'1 0.9
2015-Feb-25 00:33N 49°11' W 123°53'2 2.0
2015-Feb-24 23:31N 49°10' W 123°56'  
Track history (hours):
 
Tides and Currents Weather Stations Pressure Air Temp Water Temp Dewpoint Dewpoint Depression Visibility Wind Speed Wind Dir Waves Ship Positions

Quinsam

Last reported at 2015-Mar-06 23:29 UTC. Time now 2015-Mar-07 00:16 UTC.
Position N 49°10' W 123°56'.

Length 88 m; draft 1.5 m.

Type: Ship. MMSI: 316001266.

Date/timePositionNaut miles runAvg speedWind from/ knotsBaromVisibWave heightAir tempDewpointWater temp
2015-Mar-06 23:29N 49°10' W 123°56'3 3.1
2015-Mar-06 22:33N 49°11' W 123°52'3 2.8
2015-Mar-06 21:34N 49°10' W 123°56'0 0.1
2015-Mar-06 20:34N 49°10' W 123°56'2 1.5
2015-Mar-06 19:33N 49°10' W 123°54'2 1.5
2015-Mar-06 18:33N 49°10' W 123°56'0 0.3
2015-Mar-06 17:34N 49°10' W 123°55'2 2.3
2015-Mar-06 16:33N 49°11' W 123°52'0 0.3
2015-Mar-06 15:22N 49°11' W 123°52'0 0.6
2015-Mar-06 14:33N 49°11' W 123°52'0 0.1
2015-Mar-06 13:33N 49°11' W 123°52'0 0.2
2015-Mar-06 11:09N 49°11' W 123°52'0 0.0
2015-Mar-06 10:21N 49°11' W 123°52'0 0.0
2015-Mar-06 09:30N 49°11' W 123°52'0 0.0
2015-Mar-06 08:33N 49°11' W 123°52'0 0.0
2015-Mar-06 07:29N 49°11' W 123°52'0 0.0
2015-Mar-06 06:28N 49°11' W 123°52'0 0.0
2015-Mar-06 05:31N 49°11' W 123°52'2 1.6
2015-Mar-06 04:34N 49°10' W 123°54'1 0.6
2015-Mar-06 03:33N 49°11' W 123°53'1 0.6
2015-Mar-06 02:33N 49°11' W 123°52'0 0.3
2015-Mar-06 01:29N 49°11' W 123°52'1 1.0
2015-Mar-06 00:33N 49°10' W 123°53'2 1.7
2015-Mar-05 23:28N 49°10' W 123°56'3 2.0
2015-Mar-05 22:07N 49°11' W 123°52'3 4.9
2015-Mar-05 21:33N 49°10' W 123°56'0 0.0
2015-Mar-05 20:32N 49°10' W 123°56'1 1.0
2015-Mar-05 19:33N 49°10' W 123°54'1 0.9
2015-Mar-05 18:32N 49°10' W 123°56'0 0.2
2015-Mar-05 17:32N 49°10' W 123°56'3 2.5
2015-Mar-05 16:32N 49°11' W 123°52'0 0.2
2015-Mar-05 15:33N 49°11' W 123°52'0 0.0
2015-Mar-05 14:33N 49°11' W 123°52'0 0.2
2015-Mar-05 13:31N 49°11' W 123°52'0 0.1
2015-Mar-05 11:25N 49°11' W 123°52'0 0.0
2015-Mar-05 10:25N 49°11' W 123°52'0 0.0
2015-Mar-05 09:25N 49°11' W 123°52'0 0.0
2015-Mar-05 08:25N 49°11' W 123°52'0 0.0
2015-Mar-05 07:32N 49°11' W 123°52'3 2.9
2015-Mar-05 06:33N 49°10' W 123°56'3 2.7
2015-Mar-05 05:30N 49°11' W 123°52'2 2.2
2015-Mar-05 04:33N 49°10' W 123°55'1 0.8
2015-Mar-05 03:33N 49°10' W 123°54'1 1.3
2015-Mar-05 02:33N 49°11' W 123°52'0 0.0
2015-Mar-05 01:31N 49°11' W 123°52'1 0.8
2015-Mar-05 00:32N 49°11' W 123°53'2 2.2
2015-Mar-04 23:33N 49°10' W 123°56'3 2.2
2015-Mar-04 22:14N 49°11' W 123°52'3 4.0
2015-Mar-04 21:33N 49°10' W 123°56'0 0.2
2015-Mar-04 20:33N 49°10' W 123°56'2 1.8
2015-Mar-04 19:33N 49°10' W 123°53'2 1.6
2015-Mar-04 18:29N 49°10' W 123°56'0 0.3
2015-Mar-04 17:33N 49°10' W 123°55'2 2.1
2015-Mar-04 16:30N 49°11' W 123°52'0 0.5
2015-Mar-04 15:33N 49°11' W 123°52'0 0.0
2015-Mar-04 14:33N 49°11' W 123°52'1 0.5
2015-Mar-04 13:33N 49°11' W 123°52'1 0.5
2015-Mar-04 12:31N 49°11' W 123°52'0 0.0
2015-Mar-04 11:13N 49°11' W 123°52'0 0.0
2015-Mar-04 10:31N 49°11' W 123°52'0 0.0
2015-Mar-04 09:31N 49°11' W 123°52'0 0.0
2015-Mar-04 08:25N 49°11' W 123°52'0 0.0
2015-Mar-04 07:29N 49°11' W 123°52'0 0.0
2015-Mar-04 06:33N 49°11' W 123°52'0 0.0
2015-Mar-04 05:31N 49°11' W 123°52'1 1.4
2015-Mar-04 04:33N 49°10' W 123°54'0 0.4
2015-Mar-04 03:33N 49°11' W 123°53'1 0.7
2015-Mar-04 02:32N 49°11' W 123°52'1 0.5
2015-Mar-04 01:20N 49°11' W 123°53'0 0.4
2015-Mar-04 00:33N 49°11' W 123°52'2 2.2
2015-Mar-03 23:29N 49°10' W 123°56'2 1.4
2015-Mar-03 22:03N 49°11' W 123°53'2 4.0
2015-Mar-03 21:32N 49°10' W 123°56'0 0.0
2015-Mar-03 20:33N 49°10' W 123°56'2 2.0
2015-Mar-03 19:33N 49°11' W 123°53'2 1.9
2015-Mar-03 18:33N 49°10' W 123°56'0 0.2
2015-Mar-03 17:33N 49°10' W 123°56'3 2.5
2015-Mar-03 16:33N 49°11' W 123°52'0 0.2
2015-Mar-03 15:33N 49°11' W 123°52'0 0.4
2015-Mar-03 14:33N 49°11' W 123°52'0 0.1
2015-Mar-03 13:33N 49°11' W 123°52'0 0.1
2015-Mar-03 09:22N 49°11' W 123°52'0 0.0
2015-Mar-03 08:04N 49°11' W 123°52'0 0.0
2015-Mar-03 07:29N 49°11' W 123°52'0 0.0
2015-Mar-03 06:28N 49°11' W 123°52'0 0.0
2015-Mar-03 05:33N 49°11' W 123°52'1 1.2
2015-Mar-03 04:33N 49°10' W 123°53'0 0.1
2015-Mar-03 03:33N 49°11' W 123°53'1 1.3
2015-Mar-03 02:33N 49°11' W 123°52'0 0.0
2015-Mar-03 01:32N 49°11' W 123°52'1 1.1
2015-Mar-03 00:33N 49°10' W 123°53'2 1.7
2015-Mar-02 23:29N 49°10' W 123°56'3 3.0
2015-Mar-02 22:32N 49°11' W 123°52'3 2.4
2015-Mar-02 21:31N 49°10' W 123°55'0 0.3
2015-Mar-02 20:23N 49°10' W 123°56'1 1.6
2015-Mar-02 19:32N 49°10' W 123°54'1 1.3
2015-Mar-02 18:30N 49°10' W 123°56'0 0.0
2015-Mar-02 17:33N 49°10' W 123°56'2 2.4
2015-Mar-02 16:33N 49°11' W 123°52'0 0.5
2015-Mar-02 15:32N 49°11' W 123°52'0 0.0
2015-Mar-02 14:32N 49°11' W 123°52'0 0.4
2015-Mar-02 13:33N 49°11' W 123°52'0 0.4
2015-Mar-02 12:28N 49°11' W 123°52'0 0.0
2015-Mar-02 11:22N 49°11' W 123°52'0 0.0
2015-Mar-02 10:10N 49°11' W 123°52'0 0.0
2015-Mar-02 09:10N 49°11' W 123°52'0 0.0
2015-Mar-02 08:22N 49°11' W 123°52'2 1.4
2015-Mar-02 06:34N 49°10' W 123°55'2 2.4
2015-Mar-02 05:33N 49°11' W 123°52'1 1.4
2015-Mar-02 04:33N 49°10' W 123°54'0 0.2
2015-Mar-02 03:33N 49°11' W 123°53'1 0.9
2015-Mar-02 02:33N 49°11' W 123°52'0 0.2
2015-Mar-02 01:21N 49°11' W 123°52'1 1.0
2015-Mar-02 00:33N 49°10' W 123°53'2 1.6
2015-Mar-01 23:31N 49°10' W 123°56'1 0.5
2015-Mar-01 21:33N 49°10' W 123°54'1 1.2
2015-Mar-01 20:32N 49°11' W 123°53'0 0.1
2015-Mar-01 19:21N 49°11' W 123°53'2 2.4
2015-Mar-01 18:26N 49°10' W 123°56'2 2.6
2015-Mar-01 17:33N 49°11' W 123°53'0 0.1
2015-Mar-01 16:22N 49°11' W 123°52'2 2.0
2015-Mar-01 15:11N 49°10' W 123°56'3 4.4
2015-Mar-01 14:31N 49°11' W 123°52'0 0.0
2015-Mar-01 08:23N 49°11' W 123°52'0 0.0
2015-Mar-01 07:27N 49°11' W 123°52'1 0.5
2015-Mar-01 06:22N 49°11' W 123°52'1 0.6
2015-Mar-01 05:31N 49°11' W 123°52'2 1.7
2015-Mar-01 04:32N 49°10' W 123°54'0 0.1
2015-Mar-01 03:32N 49°10' W 123°54'1 1.0
2015-Mar-01 02:30N 49°11' W 123°52'0 0.1
2015-Mar-01 01:18N 49°11' W 123°53'0 0.2
2015-Mar-01 00:32N 49°11' W 123°53'2 2.1
2015-Feb-28 23:32N 49°10' W 123°56'1 0.3
2015-Feb-28 21:33N 49°10' W 123°55'2 1.5
2015-Feb-28 20:33N 49°11' W 123°53'0 0.1
2015-Feb-28 19:21N 49°11' W 123°53'2 2.3
2015-Feb-28 18:22N 49°10' W 123°56'1 0.9
2015-Feb-28 17:33N 49°10' W 123°55'2 1.5
2015-Feb-28 16:24N 49°11' W 123°52'0 0.4
2015-Feb-28 15:26N 49°11' W 123°52'0 0.2
2015-Feb-28 14:32N 49°11' W 123°52'0 0.1
2015-Feb-28 13:12N 49°11' W 123°52'0 0.0
2015-Feb-28 08:12N 49°11' W 123°52'1 0.7
2015-Feb-28 07:23N 49°11' W 123°52'1 0.6
2015-Feb-28 06:28N 49°11' W 123°52'2 0.9
2015-Feb-28 04:33N 49°10' W 123°54'0 0.3
2015-Feb-28 03:33N 49°10' W 123°54'1 0.9
2015-Feb-28 02:28N 49°11' W 123°52'0 0.1
2015-Feb-28 01:22N 49°11' W 123°52'0 0.6
2015-Feb-28 00:33N 49°11' W 123°53'2 1.9
2015-Feb-27 23:27N 49°10' W 123°56'2 1.5
2015-Feb-27 22:05N 49°11' W 123°53'2 3.8
2015-Feb-27 21:32N 49°10' W 123°56'0 0.1
2015-Feb-27 20:33N 49°10' W 123°56'2 1.5
2015-Feb-27 19:31N 49°10' W 123°54'2 1.6
2015-Feb-27 18:33N 49°10' W 123°56'0 0.1
2015-Feb-27 17:33N 49°10' W 123°56'3 2.7
2015-Feb-27 16:32N 49°11' W 123°52'0 0.1
2015-Feb-27 15:26N 49°11' W 123°52'0 0.0
2015-Feb-27 14:32N 49°11' W 123°52'0 0.2
2015-Feb-27 13:33N 49°11' W 123°52'0 0.1
2015-Feb-27 11:31N 49°11' W 123°52'1 0.2
2015-Feb-27 07:21N 49°11' W 123°53'1 0.8
2015-Feb-27 06:31N 49°11' W 123°52'0 0.0
2015-Feb-27 05:17N 49°11' W 123°52'1 1.8
2015-Feb-27 04:33N 49°10' W 123°54'0 0.1
2015-Feb-27 03:33N 49°10' W 123°53'1 0.5
2015-Feb-27 02:26N 49°11' W 123°53'1 0.8
2015-Feb-27 01:29N 49°11' W 123°52'0 0.0
2015-Feb-27 00:13N 49°11' W 123°52'2 2.6
2015-Feb-26 23:24N 49°10' W 123°55'0 0.0
2015-Feb-26 21:32N 49°10' W 123°55'1 0.5
2015-Feb-26 20:26N 49°10' W 123°56'1 1.0
2015-Feb-26 19:33N 49°10' W 123°54'1 0.8
2015-Feb-26 18:33N 49°10' W 123°55'0 0.3
2015-Feb-26 17:26N 49°10' W 123°56'1 1.5
2015-Feb-26 16:34N 49°10' W 123°54'2 1.5
2015-Feb-26 15:30N 49°11' W 123°52'0 0.0
2015-Feb-26 14:27N 49°11' W 123°52'0 0.0
2015-Feb-26 13:30N 49°11' W 123°52'0 0.0
2015-Feb-26 07:28N 49°11' W 123°52'0 0.1
2015-Feb-26 05:31N 49°11' W 123°52'1 1.4
2015-Feb-26 04:33N 49°10' W 123°54'0 0.1
2015-Feb-26 03:32N 49°10' W 123°54'1 0.7
2015-Feb-26 02:29N 49°11' W 123°53'0 0.2
2015-Feb-26 01:20N 49°11' W 123°52'0 0.1
2015-Feb-26 00:30N 49°11' W 123°52'2 2.1
2015-Feb-25 23:27N 49°10' W 123°56'3 2.7
2015-Feb-25 22:25N 49°11' W 123°52'3 3.1
2015-Feb-25 21:32N 49°10' W 123°56'0 0.1
2015-Feb-25 20:22N 49°10' W 123°56'2 2.9
2015-Feb-25 19:33N 49°11' W 123°52'2 2.1
2015-Feb-25 18:26N 49°10' W 123°56'0 0.5
2015-Feb-25 17:33N 49°10' W 123°55'2 1.6
2015-Feb-25 16:31N 49°11' W 123°53'1 0.6
2015-Feb-25 15:25N 49°11' W 123°52'0 0.1
2015-Feb-25 14:32N 49°11' W 123°52'0 0.4
2015-Feb-25 13:33N 49°11' W 123°52'0 0.1
2015-Feb-25 07:33N 49°11' W 123°52'0 0.0
2015-Feb-25 06:30N 49°11' W 123°52'0 0.0
2015-Feb-25 05:26N 49°11' W 123°52'1 1.1
2015-Feb-25 04:33N 49°11' W 123°53'0 0.2
2015-Feb-25 03:32N 49°11' W 123°53'1 0.8
2015-Feb-25 02:33N 49°11' W 123°52'0 0.0
2015-Feb-25 01:33N 49°11' W 123°52'1 0.9
2015-Feb-25 00:33N 49°11' W 123°53'2 2.0
2015-Feb-24 23:31N 49°10' W 123°56'  

Dump ship's entire track history